createdAt,value
2019-03-24T00:00:08.609Z,5.07
2019-03-24T00:01:08.558Z,5.10
2019-03-24T00:02:08.589Z,5.20
2019-03-24T00:03:08.523Z,5.22
2019-03-24T00:04:08.514Z,5.15
2019-03-24T00:05:08.452Z,5.10
2019-03-24T00:06:08.548Z,5.09
2019-03-24T00:07:08.435Z,5.10
2019-03-24T00:08:08.420Z,5.09
2019-03-24T00:09:08.407Z,5.04
2019-03-24T00:10:08.410Z,5.06
2019-03-24T00:11:08.469Z,5.10
2019-03-24T00:12:08.374Z,5.04
2019-03-24T00:13:08.410Z,5.00
2019-03-24T00:14:08.376Z,5.09
2019-03-24T00:15:08.443Z,5.03
2019-03-24T00:16:08.489Z,4.89
2019-03-24T00:17:08.366Z,4.94
2019-03-24T00:18:08.368Z,4.94
2019-03-24T00:19:08.444Z,4.86
2019-03-24T00:20:10.282Z,4.85
2019-03-24T00:21:08.366Z,4.84
2019-03-24T00:22:08.574Z,4.85
2019-03-24T00:23:08.248Z,4.89
2019-03-24T00:24:08.300Z,4.89
2019-03-24T00:25:08.209Z,4.97
2019-03-24T00:26:08.288Z,4.88
2019-03-24T00:27:08.306Z,4.85
2019-03-24T00:28:08.208Z,4.89
2019-03-24T00:29:08.243Z,4.91
2019-03-24T00:30:08.284Z,4.86
2019-03-24T00:31:08.149Z,4.92
2019-03-24T00:32:08.227Z,4.96
2019-03-24T00:33:08.179Z,4.84
2019-03-24T00:34:08.248Z,4.88
2019-03-24T00:35:08.161Z,4.86
2019-03-24T00:36:08.176Z,4.80
2019-03-24T00:37:08.149Z,4.84
2019-03-24T00:38:08.117Z,4.89
2019-03-24T00:39:08.238Z,4.70
2019-03-24T00:40:08.151Z,4.86
2019-03-24T00:41:08.099Z,4.91
2019-03-24T00:42:08.101Z,4.84
2019-03-24T00:43:08.086Z,4.80
2019-03-24T00:44:08.120Z,4.80
2019-03-24T00:45:07.969Z,4.80
2019-03-24T00:46:08.176Z,4.73
2019-03-24T00:47:08.055Z,4.67
2019-03-24T00:48:08.131Z,4.65
2019-03-24T00:49:07.992Z,4.66
2019-03-24T00:50:08.020Z,4.52
2019-03-24T00:51:07.927Z,4.52
2019-03-24T00:52:07.976Z,4.60
2019-03-24T00:53:07.869Z,4.51
2019-03-24T00:54:07.899Z,4.44
2019-03-24T00:55:07.875Z,4.63
2019-03-24T00:56:07.872Z,4.55
2019-03-24T00:57:07.901Z,4.54
2019-03-24T00:58:07.807Z,4.62
2019-03-24T00:59:07.819Z,4.63
2019-03-24T01:00:07.893Z,4.63
2019-03-24T01:01:07.889Z,4.59
2019-03-24T01:02:07.865Z,4.60
2019-03-24T01:03:07.895Z,4.54
2019-03-24T01:04:07.809Z,4.55
2019-03-24T01:05:07.868Z,4.59
2019-03-24T01:06:07.732Z,4.54
2019-03-24T01:07:07.714Z,4.60
2019-03-24T01:08:07.794Z,4.65
2019-03-24T01:09:07.748Z,4.67
2019-03-24T01:10:07.728Z,4.65
2019-03-24T01:11:07.777Z,4.54
2019-03-24T01:12:07.685Z,4.58
2019-03-24T01:13:07.732Z,4.47
2019-03-24T01:14:07.685Z,4.48
2019-03-24T01:15:07.740Z,4.51
2019-03-24T01:16:07.622Z,4.51
2019-03-24T01:17:07.631Z,4.52
2019-03-24T01:18:07.655Z,4.54
2019-03-24T01:19:07.638Z,4.59
2019-03-24T01:20:07.582Z,4.55
2019-03-24T01:21:07.564Z,4.60
2019-03-24T01:22:07.588Z,4.45
2019-03-24T01:23:08.560Z,4.52
2019-03-24T01:24:07.601Z,4.47
2019-03-24T01:25:07.536Z,4.44
2019-03-24T01:26:07.571Z,4.30
2019-03-24T01:27:07.603Z,4.41
2019-03-24T01:28:07.595Z,4.33
2019-03-24T01:29:07.551Z,4.36
2019-03-24T01:30:07.537Z,4.41
2019-03-24T01:31:07.615Z,4.32
2019-03-24T01:32:07.562Z,4.36
2019-03-24T01:33:07.523Z,4.42
2019-03-24T01:34:07.538Z,4.37
2019-03-24T01:35:07.471Z,4.30
2019-03-24T01:36:07.499Z,4.36
2019-03-24T01:37:07.438Z,4.37
2019-03-24T01:38:07.442Z,4.32
2019-03-24T01:39:07.445Z,4.47
2019-03-24T01:40:07.383Z,4.44
2019-03-24T01:41:08.131Z,4.42
2019-03-24T01:42:07.419Z,4.40
2019-03-24T01:43:07.390Z,4.41
2019-03-24T01:44:07.422Z,4.29
2019-03-24T01:45:07.352Z,4.32
2019-03-24T01:46:07.337Z,4.32
2019-03-24T01:47:07.335Z,4.29
2019-03-24T01:48:07.397Z,4.30
2019-03-24T01:49:07.376Z,4.36
2019-03-24T01:50:07.315Z,4.34
2019-03-24T01:51:07.275Z,4.27
2019-03-24T01:52:07.255Z,4.30
2019-03-24T01:53:07.275Z,4.33
2019-03-24T01:54:07.303Z,4.22
2019-03-24T01:55:07.251Z,4.29
2019-03-24T01:56:07.234Z,4.16
2019-03-24T01:57:07.275Z,4.11
2019-03-24T01:58:07.569Z,4.18
2019-03-24T01:59:07.251Z,4.18
2019-03-24T02:00:07.213Z,4.27
2019-03-24T02:01:07.135Z,4.22
2019-03-24T02:02:07.188Z,4.14
2019-03-24T02:03:07.244Z,4.20
2019-03-24T02:04:07.212Z,4.24
2019-03-24T02:05:07.137Z,4.20
2019-03-24T02:06:07.099Z,4.11
2019-03-24T02:07:07.112Z,4.00
2019-03-24T02:08:07.143Z,3.97
2019-03-24T02:09:07.065Z,3.94
2019-03-24T02:10:07.150Z,4.09
2019-03-24T02:11:07.094Z,4.26
2019-03-24T02:12:07.023Z,4.24
2019-03-24T02:13:07.031Z,4.29
2019-03-24T02:14:07.086Z,4.24
2019-03-24T02:15:07.133Z,4.27
2019-03-24T02:16:09.613Z,4.20
2019-03-24T02:17:07.027Z,4.23
2019-03-24T02:18:07.035Z,4.29
2019-03-24T02:19:06.962Z,4.22
2019-03-24T02:20:07.158Z,4.27
2019-03-24T02:21:06.913Z,4.18
2019-03-24T02:22:06.990Z,4.16
2019-03-24T02:23:06.988Z,4.14
2019-03-24T02:24:06.914Z,4.05
2019-03-24T02:25:06.874Z,4.23
2019-03-24T02:26:06.998Z,4.27
2019-03-24T02:27:06.952Z,4.22
2019-03-24T02:28:06.859Z,4.14
2019-03-24T02:29:06.920Z,4.08
2019-03-24T02:30:06.855Z,3.94
2019-03-24T02:31:06.940Z,3.94
2019-03-24T02:32:06.833Z,4.02
2019-03-24T02:33:06.830Z,4.11
2019-03-24T02:34:06.841Z,4.00
2019-03-24T02:35:06.775Z,4.05
2019-03-24T02:36:06.821Z,4.08
2019-03-24T02:37:06.845Z,4.05
2019-03-24T02:38:06.798Z,4.00
2019-03-24T02:39:06.865Z,4.04
2019-03-24T02:40:06.758Z,3.93
2019-03-24T02:41:06.788Z,3.88
2019-03-24T02:42:07.671Z,3.87
2019-03-24T02:43:06.725Z,3.84
2019-03-24T02:44:06.682Z,3.91
2019-03-24T02:45:06.998Z,3.90
2019-03-24T02:46:06.699Z,3.79
2019-03-24T02:47:06.693Z,3.79
2019-03-24T02:48:06.789Z,3.83
2019-03-24T02:49:06.625Z,3.84
2019-03-24T02:50:06.702Z,3.83
2019-03-24T02:51:06.601Z,3.80
2019-03-24T02:52:06.712Z,3.83
2019-03-24T02:53:06.682Z,3.88
2019-03-24T02:54:06.635Z,3.84
2019-03-24T02:55:06.597Z,3.86
2019-03-24T02:56:06.629Z,3.78
2019-03-24T02:57:06.662Z,3.84
2019-03-24T02:58:06.669Z,3.86
2019-03-24T02:59:06.687Z,3.83
2019-03-24T03:00:06.566Z,3.76
2019-03-24T03:01:06.529Z,3.76
2019-03-24T03:02:06.538Z,3.79
2019-03-24T03:03:06.544Z,3.75
2019-03-24T03:04:06.562Z,3.76
2019-03-24T03:05:06.513Z,3.73
2019-03-24T03:06:06.542Z,3.62
2019-03-24T03:07:06.491Z,3.66
2019-03-24T03:08:06.526Z,3.69
2019-03-24T03:09:06.466Z,3.66
2019-03-24T03:10:06.420Z,3.70
2019-03-24T03:11:06.497Z,3.61
2019-03-24T03:12:06.454Z,3.73
2019-03-24T03:13:06.450Z,3.70
2019-03-24T03:14:06.424Z,3.68
2019-03-24T03:15:06.476Z,3.66
2019-03-24T03:16:06.431Z,3.66
2019-03-24T03:17:06.374Z,3.73
2019-03-24T03:18:07.722Z,3.61
2019-03-24T03:19:06.495Z,3.69
2019-03-24T03:20:06.474Z,3.65
2019-03-24T03:21:06.774Z,3.60
2019-03-24T03:22:06.395Z,3.57
2019-03-24T03:23:06.387Z,3.61
2019-03-24T03:24:06.320Z,3.70
2019-03-24T03:25:06.519Z,3.62
2019-03-24T03:26:06.283Z,3.69
2019-03-24T03:27:06.323Z,3.58
2019-03-24T03:28:06.451Z,3.61
2019-03-24T03:29:06.257Z,3.72
2019-03-24T03:30:06.247Z,3.66
2019-03-24T03:31:06.250Z,3.75
2019-03-24T03:32:06.281Z,3.58
2019-03-24T03:33:06.165Z,3.65
2019-03-24T03:34:06.201Z,3.68
2019-03-24T03:35:06.192Z,3.66
2019-03-24T03:36:06.102Z,3.62
2019-03-24T03:37:06.201Z,3.66
2019-03-24T03:38:06.202Z,3.69
2019-03-24T03:39:06.141Z,3.65
2019-03-24T03:40:06.225Z,3.58
2019-03-24T03:41:06.242Z,3.52
2019-03-24T03:42:06.244Z,3.54
2019-03-24T03:43:06.117Z,3.52
2019-03-24T03:44:06.130Z,3.60
2019-03-24T03:45:06.144Z,3.65
2019-03-24T03:46:06.084Z,3.45
2019-03-24T03:47:06.067Z,3.65
2019-03-24T03:48:06.030Z,3.61
2019-03-24T03:49:06.034Z,3.60
2019-03-24T03:50:06.998Z,3.62
2019-03-24T03:51:06.088Z,3.52
2019-03-24T03:52:05.997Z,3.50
2019-03-24T03:53:05.957Z,3.52
2019-03-24T03:54:06.001Z,3.54
2019-03-24T03:55:05.974Z,3.72
2019-03-24T03:56:05.935Z,3.61
2019-03-24T03:57:05.908Z,3.76
2019-03-24T03:58:05.938Z,3.69
2019-03-24T03:59:05.867Z,3.68
2019-03-24T04:00:06.006Z,3.65
2019-03-24T04:01:05.912Z,3.60
2019-03-24T04:02:05.924Z,3.57
2019-03-24T04:03:05.926Z,3.48
2019-03-24T04:04:05.933Z,3.51
2019-03-24T04:05:05.954Z,3.47
2019-03-24T04:06:05.874Z,3.52
2019-03-24T04:07:05.807Z,3.45
2019-03-24T04:08:05.808Z,3.32
2019-03-24T04:09:05.809Z,3.31
2019-03-24T04:10:05.942Z,3.32
2019-03-24T04:11:05.840Z,3.36
2019-03-24T04:12:05.788Z,3.48
2019-03-24T04:13:05.803Z,3.57
2019-03-24T04:14:05.755Z,3.58
2019-03-24T04:15:05.757Z,3.43
2019-03-24T04:16:05.782Z,3.45
2019-03-24T04:17:07.859Z,3.43
2019-03-24T04:18:05.857Z,3.32
2019-03-24T04:19:05.696Z,3.36
2019-03-24T04:20:05.677Z,3.32
2019-03-24T04:21:05.743Z,3.28
2019-03-24T04:22:05.623Z,3.26
2019-03-24T04:23:05.640Z,3.26
2019-03-24T04:24:05.582Z,3.21
2019-03-24T04:25:05.699Z,3.32
2019-03-24T04:26:05.583Z,3.39
2019-03-24T04:27:05.594Z,3.55
2019-03-24T04:28:05.547Z,3.52
2019-03-24T04:29:05.555Z,3.54
2019-03-24T04:30:05.545Z,3.51
2019-03-24T04:31:05.552Z,3.51
2019-03-24T04:32:05.544Z,3.50
2019-03-24T04:33:05.519Z,3.43
2019-03-24T04:34:05.507Z,3.40
2019-03-24T04:35:05.490Z,3.36
2019-03-24T04:36:05.650Z,3.43
2019-03-24T04:37:05.638Z,3.33
2019-03-24T04:38:05.544Z,3.40
2019-03-24T04:39:05.657Z,3.32
2019-03-24T04:40:05.445Z,3.40
2019-03-24T04:41:05.478Z,3.48
2019-03-24T04:42:05.427Z,3.52
2019-03-24T04:43:05.577Z,3.40
2019-03-24T04:44:05.699Z,3.45
2019-03-24T04:45:06.100Z,3.32
2019-03-24T04:46:05.398Z,3.39
2019-03-24T04:47:05.355Z,3.33
2019-03-24T04:48:05.375Z,3.35
2019-03-24T04:49:05.364Z,3.31
2019-03-24T04:50:05.320Z,3.39
2019-03-24T04:51:05.291Z,3.36
2019-03-24T04:52:05.328Z,3.33
2019-03-24T04:53:05.305Z,3.32
2019-03-24T04:54:05.268Z,3.33
2019-03-24T04:55:05.247Z,3.33
2019-03-24T04:56:05.244Z,3.48
2019-03-24T04:57:05.240Z,3.29
2019-03-24T04:58:05.966Z,3.17
2019-03-24T04:59:05.267Z,3.24
2019-03-24T05:00:05.201Z,3.32
2019-03-24T05:01:05.192Z,3.33
2019-03-24T05:02:05.232Z,3.29
2019-03-24T05:03:05.951Z,3.17
2019-03-24T05:04:05.198Z,3.33
2019-03-24T05:05:05.137Z,3.32
2019-03-24T05:06:05.125Z,3.35
2019-03-24T05:07:05.136Z,3.28
2019-03-24T05:08:05.115Z,3.18
2019-03-24T05:09:05.141Z,3.20
2019-03-24T05:10:05.085Z,3.10
2019-03-24T05:11:05.121Z,3.21
2019-03-24T05:12:05.133Z,3.20
2019-03-24T05:13:05.060Z,3.23
2019-03-24T05:14:05.953Z,3.28
2019-03-24T05:15:05.031Z,3.24
2019-03-24T05:16:05.087Z,3.20
2019-03-24T05:17:05.026Z,3.24
2019-03-24T05:18:05.006Z,3.24
2019-03-24T05:19:05.033Z,3.23
2019-03-24T05:20:05.057Z,3.11
2019-03-24T05:21:04.987Z,3.14
2019-03-24T05:22:05.008Z,3.17
2019-03-24T05:23:04.959Z,3.02
2019-03-24T05:24:05.038Z,3.11
2019-03-24T05:25:04.975Z,3.14
2019-03-24T05:26:04.935Z,3.05
2019-03-24T05:27:04.956Z,3.02
2019-03-24T05:28:04.907Z,2.90
2019-03-24T05:29:04.946Z,2.81
2019-03-24T05:30:04.913Z,2.79
2019-03-24T05:31:04.873Z,2.85
2019-03-24T05:32:04.853Z,2.89
2019-03-24T05:33:04.851Z,2.82
2019-03-24T05:34:04.879Z,2.74
2019-03-24T05:35:05.832Z,2.87
2019-03-24T05:36:04.809Z,2.77
2019-03-24T05:37:04.808Z,2.81
2019-03-24T05:38:04.850Z,2.81
2019-03-24T05:39:04.773Z,2.71
2019-03-24T05:40:04.831Z,2.81
2019-03-24T05:41:04.767Z,2.75
2019-03-24T05:42:04.795Z,2.79
2019-03-24T05:43:04.744Z,2.74
2019-03-24T05:44:04.719Z,2.84
2019-03-24T05:45:04.788Z,2.79
2019-03-24T05:46:04.714Z,2.84
2019-03-24T05:47:04.706Z,2.82
2019-03-24T05:48:04.768Z,2.82
2019-03-24T05:49:04.701Z,2.81
2019-03-24T05:50:04.725Z,2.82
2019-03-24T05:51:04.649Z,2.79
2019-03-24T05:52:04.641Z,2.71
2019-03-24T05:53:04.624Z,2.81
2019-03-24T05:54:04.625Z,2.92
2019-03-24T05:55:04.627Z,2.90
2019-03-24T05:56:04.678Z,2.82
2019-03-24T05:57:04.593Z,2.96
2019-03-24T05:58:04.588Z,2.95
2019-03-24T05:59:04.585Z,2.96
2019-03-24T06:00:04.546Z,2.99
2019-03-24T06:01:04.627Z,3.06
2019-03-24T06:02:04.549Z,3.15
2019-03-24T06:03:04.533Z,3.14
2019-03-24T06:04:04.513Z,3.26
2019-03-24T06:05:04.502Z,3.23
2019-03-24T06:06:04.476Z,3.26
2019-03-24T06:07:04.520Z,3.23
2019-03-24T06:08:04.503Z,3.26
2019-03-24T06:09:04.481Z,3.20
2019-03-24T06:10:05.013Z,3.18
2019-03-24T06:11:04.431Z,3.23
2019-03-24T06:12:04.471Z,3.14
2019-03-24T06:13:04.415Z,3.11
2019-03-24T06:14:04.448Z,3.21
2019-03-24T06:15:04.392Z,3.21
2019-03-24T06:16:04.481Z,3.24
2019-03-24T06:17:04.434Z,3.21
2019-03-24T06:18:04.359Z,3.21
2019-03-24T06:19:04.345Z,3.26
2019-03-24T06:20:04.400Z,3.21
2019-03-24T06:21:04.366Z,3.24
2019-03-24T06:22:04.333Z,3.36
2019-03-24T06:23:12.075Z,3.33
2019-03-24T06:24:04.321Z,3.52
2019-03-24T06:25:04.303Z,3.45
2019-03-24T06:26:04.299Z,3.45
2019-03-24T06:27:04.264Z,3.45
2019-03-24T06:28:04.309Z,3.40
2019-03-24T06:29:04.240Z,3.51
2019-03-24T06:30:04.228Z,3.58
2019-03-24T06:31:04.285Z,3.57
2019-03-24T06:32:04.207Z,3.57
2019-03-24T06:33:04.244Z,3.69
2019-03-24T06:34:04.180Z,3.65
2019-03-24T06:35:04.182Z,3.58
2019-03-24T06:36:04.162Z,3.66
2019-03-24T06:37:04.151Z,3.86
2019-03-24T06:38:04.184Z,3.98
2019-03-24T06:39:04.195Z,3.83
2019-03-24T06:40:04.121Z,3.73
2019-03-24T06:41:04.114Z,3.72
2019-03-24T06:42:04.092Z,3.76
2019-03-24T06:43:04.136Z,3.70
2019-03-24T06:44:04.075Z,3.73
2019-03-24T06:45:04.076Z,3.75
2019-03-24T06:46:04.069Z,3.65
2019-03-24T06:47:04.044Z,3.65
2019-03-24T06:48:04.075Z,3.70
2019-03-24T06:49:04.020Z,3.65
2019-03-24T06:50:04.034Z,3.79
2019-03-24T06:51:04.001Z,3.80
2019-03-24T06:52:04.010Z,3.76
2019-03-24T06:53:04.024Z,3.84
2019-03-24T06:54:03.971Z,3.91
2019-03-24T06:55:03.962Z,3.98
2019-03-24T06:56:03.946Z,4.08
2019-03-24T06:57:04.006Z,4.00
2019-03-24T06:58:03.967Z,3.80
2019-03-24T06:59:03.928Z,3.80
2019-03-24T07:00:03.900Z,3.91
2019-03-24T07:01:03.933Z,3.97
2019-03-24T07:02:03.965Z,3.87
2019-03-24T07:03:03.913Z,3.88
2019-03-24T07:04:03.854Z,3.84
2019-03-24T07:05:03.860Z,3.91
2019-03-24T07:06:03.851Z,3.80
2019-03-24T07:07:03.895Z,3.75
2019-03-24T07:08:03.914Z,3.90
2019-03-24T07:09:03.810Z,3.83
2019-03-24T07:10:03.792Z,3.80
2019-03-24T07:11:09.512Z,3.76
2019-03-24T07:12:04.771Z,3.90
2019-03-24T07:13:03.810Z,4.04
2019-03-24T07:14:03.751Z,4.05
2019-03-24T07:15:03.783Z,4.11
2019-03-24T07:16:03.733Z,4.12
2019-03-24T07:17:03.725Z,4.11
2019-03-24T07:18:08.348Z,4.06
2019-03-24T07:19:04.686Z,4.06
2019-03-24T07:20:03.773Z,4.06
2019-03-24T07:21:03.694Z,4.05
2019-03-24T07:22:03.678Z,3.94
2019-03-24T07:23:03.702Z,3.88
2019-03-24T07:24:03.651Z,3.96
2019-03-24T07:25:03.636Z,4.05
2019-03-24T07:26:03.613Z,4.12
2019-03-24T07:27:03.612Z,4.20
2019-03-24T07:28:04.515Z,4.20
2019-03-24T07:29:03.614Z,3.96
2019-03-24T07:30:03.580Z,3.98
2019-03-24T07:31:03.558Z,4.05
2019-03-24T07:32:03.613Z,3.97
2019-03-24T07:33:03.578Z,3.91
2019-03-24T07:34:03.551Z,4.11
2019-03-24T07:35:03.521Z,4.04
2019-03-24T07:36:03.551Z,4.04
2019-03-24T07:37:03.496Z,4.26
2019-03-24T07:38:03.482Z,4.26
2019-03-24T07:39:03.518Z,4.44
2019-03-24T07:40:03.463Z,4.41
2019-03-24T07:41:03.454Z,4.27
2019-03-24T07:42:05.520Z,4.23
2019-03-24T07:43:03.433Z,4.27
2019-03-24T07:44:03.460Z,4.18
2019-03-24T07:45:03.412Z,4.15
2019-03-24T07:46:03.399Z,4.08
2019-03-24T07:47:03.392Z,4.08
2019-03-24T07:48:03.449Z,4.04
2019-03-24T07:49:03.405Z,3.97
2019-03-24T07:50:03.369Z,3.88
2019-03-24T07:51:03.338Z,4.09
2019-03-24T07:52:03.326Z,4.11
2019-03-24T07:53:03.323Z,4.16
2019-03-24T07:54:03.411Z,4.09
2019-03-24T07:55:03.295Z,4.18
2019-03-24T07:56:03.296Z,4.06
2019-03-24T07:57:03.284Z,4.23
2019-03-24T07:58:03.272Z,4.12
2019-03-24T07:59:03.304Z,3.93
2019-03-24T08:00:03.266Z,4.06
2019-03-24T08:01:03.235Z,4.26
2019-03-24T08:02:03.239Z,4.54
2019-03-24T08:03:03.217Z,4.58
2019-03-24T08:04:03.252Z,4.58
2019-03-24T08:05:03.207Z,4.62
2019-03-24T08:06:03.203Z,4.27
2019-03-24T08:07:03.172Z,4.47
2019-03-24T08:08:03.195Z,4.59
2019-03-24T08:09:03.205Z,4.84
2019-03-24T08:10:03.140Z,5.06
2019-03-24T08:11:03.132Z,5.38
2019-03-24T08:12:03.124Z,5.54
2019-03-24T08:13:03.112Z,5.56
2019-03-24T08:14:03.130Z,5.40
2019-03-24T08:15:03.085Z,5.09
2019-03-24T08:16:03.115Z,5.31
2019-03-24T08:17:03.059Z,5.31
2019-03-24T08:18:03.052Z,5.56
2019-03-24T08:19:03.097Z,6.38
2019-03-24T08:20:03.028Z,6.91
2019-03-24T08:21:03.075Z,6.18
2019-03-24T08:22:03.044Z,5.85
2019-03-24T08:23:03.064Z,5.49
2019-03-24T08:24:03.052Z,5.33
2019-03-24T08:25:02.975Z,5.51
2019-03-24T08:26:03.027Z,5.96
2019-03-24T08:27:02.973Z,6.09
2019-03-24T08:28:02.938Z,5.86
2019-03-24T08:29:03.017Z,5.53
2019-03-24T08:30:02.912Z,5.49
2019-03-24T08:31:02.921Z,5.53
2019-03-24T08:32:02.907Z,5.79
2019-03-24T08:33:02.893Z,5.72
2019-03-24T08:34:02.923Z,5.49
2019-03-24T08:35:02.900Z,5.78
2019-03-24T08:36:02.852Z,6.18
2019-03-24T08:37:02.917Z,6.94
2019-03-24T08:38:02.880Z,7.39
2019-03-24T08:39:02.872Z,7.52
2019-03-24T08:40:02.811Z,7.35
2019-03-24T08:41:02.851Z,7.07
2019-03-24T08:42:02.802Z,6.59
2019-03-24T08:43:02.771Z,6.27
2019-03-24T08:44:02.814Z,6.38
2019-03-24T08:45:02.747Z,6.36
2019-03-24T08:46:02.771Z,6.31
2019-03-24T08:47:02.730Z,6.11
2019-03-24T08:48:02.723Z,6.14
2019-03-24T08:49:02.748Z,6.06
2019-03-24T08:50:02.725Z,6.31
2019-03-24T08:51:02.701Z,6.64
2019-03-24T08:52:02.678Z,7.13
2019-03-24T08:53:02.666Z,7.74
2019-03-24T08:54:02.701Z,8.26
2019-03-24T08:55:02.649Z,8.29
2019-03-24T08:56:02.638Z,8.15
2019-03-24T08:57:02.628Z,7.85
2019-03-24T08:58:02.655Z,7.32
2019-03-24T08:59:04.313Z,7.28
2019-03-24T09:00:03.867Z,7.61
2019-03-24T09:01:02.572Z,7.58
2019-03-24T09:02:02.617Z,7.37
2019-03-24T09:03:02.577Z,7.21
2019-03-24T09:04:02.584Z,6.98
2019-03-24T09:05:02.535Z,6.94
2019-03-24T09:06:02.531Z,6.88
2019-03-24T09:07:02.509Z,6.76
2019-03-24T09:08:02.532Z,6.64
2019-03-24T09:09:02.549Z,7.13
2019-03-24T09:10:02.555Z,7.53
2019-03-24T09:11:02.521Z,8.15
2019-03-24T09:12:02.457Z,8.26
2019-03-24T09:13:02.508Z,8.29
2019-03-24T09:14:02.503Z,8.01
2019-03-24T09:15:02.415Z,7.72
2019-03-24T09:16:02.421Z,7.87
2019-03-24T09:17:02.453Z,9.40
2019-03-24T09:18:02.394Z,10.32
2019-03-24T09:19:02.428Z,11.00
2019-03-24T09:20:02.400Z,11.29
2019-03-24T09:21:02.359Z,11.62
2019-03-24T09:22:02.389Z,12.77
2019-03-24T09:23:02.386Z,13.33
2019-03-24T09:24:02.433Z,12.83
2019-03-24T09:25:02.336Z,11.96
2019-03-24T09:26:02.307Z,11.55
2019-03-24T09:27:02.311Z,11.99
2019-03-24T09:28:02.342Z,12.23
2019-03-24T09:29:02.310Z,12.70
2019-03-24T09:30:02.255Z,13.38
2019-03-24T09:31:02.245Z,13.57
2019-03-24T09:32:02.234Z,13.54
2019-03-24T09:33:02.277Z,14.32
2019-03-24T09:34:02.254Z,14.35
2019-03-24T09:35:02.227Z,13.97
2019-03-24T09:36:02.203Z,14.06
2019-03-24T09:37:02.195Z,14.39
2019-03-24T09:38:02.170Z,13.41
2019-03-24T09:39:02.166Z,11.51
2019-03-24T09:40:02.284Z,10.61
2019-03-24T09:41:02.148Z,10.05
2019-03-24T09:42:02.162Z,10.63
2019-03-24T09:43:02.136Z,11.73
2019-03-24T09:44:02.169Z,11.98
2019-03-24T09:45:02.153Z,12.65
2019-03-24T09:46:02.104Z,13.48
2019-03-24T09:47:02.078Z,13.55
2019-03-24T09:48:02.095Z,14.09
2019-03-24T09:49:03.267Z,14.28
2019-03-24T09:50:02.095Z,14.02
2019-03-24T09:51:02.029Z,14.06
2019-03-24T09:52:02.054Z,13.64
2019-03-24T09:53:02.016Z,12.97
2019-03-24T09:54:01.987Z,12.53
2019-03-24T09:55:03.340Z,11.80
2019-03-24T09:56:01.966Z,11.95
2019-03-24T09:57:02.033Z,13.19
2019-03-24T09:58:01.951Z,13.00
2019-03-24T09:59:01.939Z,13.04
2019-03-24T10:00:01.969Z,13.55
2019-03-24T10:01:01.918Z,13.91
2019-03-24T10:02:01.915Z,14.69
2019-03-24T10:03:01.939Z,14.58
2019-03-24T10:04:01.900Z,15.09
2019-03-24T10:05:01.928Z,15.84
2019-03-24T10:06:01.872Z,15.82
2019-03-24T10:07:01.872Z,15.35
2019-03-24T10:08:01.876Z,15.44
2019-03-24T10:09:01.834Z,16.07
2019-03-24T10:10:01.870Z,16.24
2019-03-24T10:11:01.812Z,16.12
2019-03-24T10:12:01.804Z,14.27
2019-03-24T10:13:01.798Z,13.78
2019-03-24T10:14:01.780Z,14.61
2019-03-24T10:15:01.855Z,14.65
2019-03-24T10:16:01.757Z,14.51
2019-03-24T10:17:01.745Z,14.55
2019-03-24T10:18:01.749Z,14.80
2019-03-24T10:19:01.726Z,15.28
2019-03-24T10:20:02.532Z,15.34
2019-03-24T10:21:01.811Z,13.92
2019-03-24T10:22:01.693Z,13.64
2019-03-24T10:23:01.684Z,12.89
2019-03-24T10:24:01.678Z,13.11
2019-03-24T10:25:01.698Z,13.63
2019-03-24T10:26:01.664Z,13.55
2019-03-24T10:27:01.709Z,14.09
2019-03-24T10:28:01.632Z,14.83
2019-03-24T10:29:01.643Z,14.96
2019-03-24T10:30:01.652Z,14.84
2019-03-24T10:31:01.595Z,14.51
2019-03-24T10:32:01.621Z,13.77
2019-03-24T10:33:01.572Z,13.64
2019-03-24T10:34:01.587Z,13.33
2019-03-24T10:35:01.592Z,13.10
2019-03-24T10:36:01.541Z,12.85
2019-03-24T10:37:01.535Z,12.71
2019-03-24T10:38:01.535Z,12.60
2019-03-24T10:39:01.504Z,12.42
2019-03-24T10:40:01.607Z,12.47
2019-03-24T10:41:01.506Z,12.45
2019-03-24T10:42:01.474Z,12.19
2019-03-24T10:43:01.479Z,12.39
2019-03-24T10:44:01.486Z,12.67
2019-03-24T10:45:01.491Z,12.29
2019-03-24T10:46:01.435Z,12.05
2019-03-24T10:47:01.471Z,11.73
2019-03-24T10:48:01.422Z,11.58
2019-03-24T10:49:01.451Z,11.22
2019-03-24T10:50:01.447Z,10.82
2019-03-24T10:51:01.378Z,10.32
2019-03-24T10:52:01.370Z,9.90
2019-03-24T10:53:01.364Z,9.74
2019-03-24T10:54:01.347Z,10.08
2019-03-24T10:55:01.388Z,10.05
2019-03-24T10:56:01.350Z,10.05
2019-03-24T10:57:01.314Z,10.40
2019-03-24T10:58:01.305Z,10.48
2019-03-24T10:59:01.289Z,10.42
2019-03-24T11:00:01.317Z,10.40
2019-03-24T11:01:01.273Z,10.60
2019-03-24T11:02:01.286Z,10.52
2019-03-24T11:03:01.250Z,10.61
2019-03-24T11:04:01.238Z,10.82
2019-03-24T11:05:01.270Z,10.86
2019-03-24T11:06:01.213Z,11.18
2019-03-24T11:07:01.205Z,10.09
2019-03-24T11:08:01.196Z,10.14
2019-03-24T11:09:01.183Z,10.56
2019-03-24T11:10:01.277Z,11.07
2019-03-24T11:11:01.167Z,11.37
2019-03-24T11:12:01.145Z,11.18
2019-03-24T11:13:01.144Z,11.43
2019-03-24T11:14:01.144Z,12.14
2019-03-24T11:15:01.112Z,12.50
2019-03-24T11:16:01.158Z,12.82
2019-03-24T11:17:01.141Z,13.39
2019-03-24T11:18:01.157Z,13.64
2019-03-24T11:19:01.067Z,13.41
2019-03-24T11:20:01.079Z,12.97
2019-03-24T11:21:01.122Z,13.03
2019-03-24T11:22:01.042Z,12.97
2019-03-24T11:23:01.059Z,13.22
2019-03-24T11:24:01.045Z,13.77
2019-03-24T11:25:01.005Z,14.04
2019-03-24T11:26:01.071Z,14.02
2019-03-24T11:27:01.026Z,13.66
2019-03-24T11:28:00.964Z,13.63
2019-03-24T11:29:00.957Z,13.88
2019-03-24T11:30:00.965Z,13.60
2019-03-24T11:31:00.941Z,14.04
2019-03-24T11:32:00.967Z,14.43
2019-03-24T11:33:00.929Z,13.79
2019-03-24T11:34:00.910Z,12.87
2019-03-24T11:35:00.911Z,12.47
2019-03-24T11:36:00.911Z,12.96
2019-03-24T11:37:00.960Z,13.22
2019-03-24T11:38:00.868Z,13.52
2019-03-24T11:39:00.872Z,13.88
2019-03-24T11:40:00.848Z,14.03
2019-03-24T11:41:00.824Z,13.54
2019-03-24T11:42:00.903Z,13.59
2019-03-24T11:43:00.837Z,13.29
2019-03-24T11:44:00.821Z,12.62
2019-03-24T11:45:00.863Z,13.03
2019-03-24T11:46:00.777Z,13.44
2019-03-24T11:47:00.816Z,12.72
2019-03-24T11:48:00.761Z,12.83
2019-03-24T11:49:00.762Z,13.29
2019-03-24T11:50:00.777Z,13.00
2019-03-24T11:51:00.720Z,12.60
2019-03-24T11:52:00.714Z,12.50
2019-03-24T11:53:00.809Z,12.60
2019-03-24T11:54:00.718Z,12.54
2019-03-24T11:55:00.717Z,11.94
2019-03-24T11:56:00.662Z,11.49
2019-03-24T11:57:00.672Z,11.15
2019-03-24T11:58:05.637Z,10.81
2019-03-24T11:59:01.665Z,10.27
2019-03-24T12:00:00.778Z,9.96
2019-03-24T12:01:00.612Z,9.72
2019-03-24T12:02:00.645Z,10.23
2019-03-24T12:03:00.648Z,10.84
2019-03-24T12:04:00.588Z,11.15
2019-03-24T12:05:00.593Z,11.90
2019-03-24T12:06:00.637Z,12.16
2019-03-24T12:07:00.554Z,12.19
2019-03-24T12:08:03.617Z,12.21
2019-03-24T12:09:00.518Z,11.61
2019-03-24T12:10:00.511Z,11.52
2019-03-24T12:11:00.520Z,12.02
2019-03-24T12:12:00.591Z,12.74
2019-03-24T12:13:00.489Z,13.28
2019-03-24T12:14:00.507Z,12.89
2019-03-24T12:15:00.462Z,12.93
2019-03-24T12:16:00.446Z,12.67
2019-03-24T12:17:00.446Z,12.83
2019-03-24T12:18:00.483Z,12.87
2019-03-24T12:19:01.058Z,13.15
2019-03-24T12:20:00.425Z,13.62
2019-03-24T12:21:00.402Z,13.33
2019-03-24T12:22:00.377Z,13.10
2019-03-24T12:23:00.442Z,12.97
2019-03-24T12:24:00.416Z,12.53
2019-03-24T12:25:00.490Z,13.00
2019-03-24T12:26:00.346Z,13.60
2019-03-24T12:27:00.337Z,13.42
2019-03-24T12:28:00.315Z,13.23
2019-03-24T12:29:00.340Z,13.25
2019-03-24T12:30:00.332Z,13.25
2019-03-24T12:31:00.286Z,13.55
2019-03-24T12:32:00.270Z,13.26
2019-03-24T12:33:00.260Z,14.42
2019-03-24T12:34:00.256Z,15.44
2019-03-24T12:35:00.345Z,15.90
2019-03-24T12:36:00.302Z,16.35
2019-03-24T12:37:00.219Z,16.96
2019-03-24T12:38:00.258Z,16.49
2019-03-24T12:39:00.208Z,16.71
2019-03-24T12:40:00.377Z,15.44
2019-03-24T12:41:00.220Z,15.83
2019-03-24T12:42:00.170Z,16.07
2019-03-24T12:43:00.156Z,15.59
2019-03-24T12:44:00.183Z,15.51
2019-03-24T12:45:00.162Z,16.11
2019-03-24T12:46:01.067Z,16.56
2019-03-24T12:47:00.151Z,17.31
2019-03-24T12:48:00.107Z,17.62
2019-03-24T12:49:00.106Z,17.26
2019-03-24T12:50:08.728Z,17.70
2019-03-24T12:51:01.108Z,18.48
2019-03-24T12:52:00.056Z,17.81
2019-03-24T12:53:00.110Z,17.51
2019-03-24T12:54:00.031Z,16.27
2019-03-24T12:55:00.036Z,16.24
2019-03-24T12:56:00.126Z,15.76
2019-03-24T12:56:59.997Z,16.64
2019-03-24T12:57:59.995Z,16.50
2019-03-24T12:58:59.973Z,17.07
2019-03-24T12:59:59.983Z,17.03
2019-03-24T13:01:00.031Z,16.12
2019-03-24T13:01:59.955Z,15.17
2019-03-24T13:02:59.938Z,14.70
2019-03-24T13:03:59.924Z,15.21
2019-03-24T13:04:59.923Z,16.11
2019-03-24T13:05:59.950Z,15.68
2019-03-24T13:06:59.928Z,15.68
2019-03-24T13:07:59.903Z,16.09
2019-03-24T13:08:59.877Z,15.28
2019-03-24T13:09:59.865Z,14.42